sensor_id;sensor_type;location;lat;lon;timestamp;P1;durP1;ratioP1;P2;durP2;ratioP2
74503;SDS011;62988;55.776;37.544;2023-08-24T00:01:06;9.32;;;5.93;;
74503;SDS011;62988;55.776;37.544;2023-08-24T00:03:31;9.55;;;5.50;;
74503;SDS011;62988;55.776;37.544;2023-08-24T00:05:58;9.93;;;5.90;;
74503;SDS011;62988;55.776;37.544;2023-08-24T00:08:23;8.18;;;4.80;;
74503;SDS011;62988;55.776;37.544;2023-08-24T00:10:48;9.40;;;5.80;;
74503;SDS011;62988;55.776;37.544;2023-08-24T00:13:14;10.02;;;5.38;;
74503;SDS011;62988;55.776;37.544;2023-08-24T00:15:40;10.32;;;5.70;;
74503;SDS011;62988;55.776;37.544;2023-08-24T00:18:06;9.95;;;5.10;;
74503;SDS011;62988;55.776;37.544;2023-08-24T00:20:32;9.25;;;5.40;;
74503;SDS011;62988;55.776;37.544;2023-08-24T00:22:57;8.93;;;5.25;;
74503;SDS011;62988;55.776;37.544;2023-08-24T00:25:23;8.48;;;5.22;;
74503;SDS011;62988;55.776;37.544;2023-08-24T00:27:48;10.52;;;4.40;;
74503;SDS011;62988;55.776;37.544;2023-08-24T00:30:14;7.93;;;4.90;;
74503;SDS011;62988;55.776;37.544;2023-08-24T00:32:39;9.18;;;4.43;;
74503;SDS011;62988;55.776;37.544;2023-08-24T00:35:05;6.37;;;3.97;;
74503;SDS011;62988;55.776;37.544;2023-08-24T00:37:35;8.80;;;4.60;;
74503;SDS011;62988;55.776;37.544;2023-08-24T00:40:01;6.88;;;4.18;;
74503;SDS011;62988;55.776;37.544;2023-08-24T00:42:29;7.57;;;4.05;;
74503;SDS011;62988;55.776;37.544;2023-08-24T00:44:54;6.82;;;3.67;;
74503;SDS011;62988;55.776;37.544;2023-08-24T00:47:20;5.45;;;3.35;;
74503;SDS011;62988;55.776;37.544;2023-08-24T00:49:45;7.53;;;3.33;;
74503;SDS011;62988;55.776;37.544;2023-08-24T00:52:11;6.68;;;3.33;;
74503;SDS011;62988;55.776;37.544;2023-08-24T00:54:36;4.72;;;3.20;;
74503;SDS011;62988;55.776;37.544;2023-08-24T00:57:04;6.53;;;3.13;;
74503;SDS011;62988;55.776;37.544;2023-08-24T00:59:29;6.15;;;3.42;;
74503;SDS011;62988;55.776;37.544;2023-08-24T01:01:54;4.18;;;2.85;;
74503;SDS011;62988;55.776;37.544;2023-08-24T01:04:20;5.07;;;2.60;;
74503;SDS011;62988;55.776;37.544;2023-08-24T01:06:46;5.65;;;2.70;;
74503;SDS011;62988;55.776;37.544;2023-08-24T01:09:11;4.27;;;2.77;;
74503;SDS011;62988;55.776;37.544;2023-08-24T01:11:58;5.47;;;2.53;;
74503;SDS011;62988;55.776;37.544;2023-08-24T01:17:25;3.50;;;2.15;;
74503;SDS011;62988;55.776;37.544;2023-08-24T01:19:54;3.85;;;2.30;;
74503;SDS011;62988;55.776;37.544;2023-08-24T01:24:47;4.83;;;2.40;;
74503;SDS011;62988;55.776;37.544;2023-08-24T01:27:13;5.07;;;2.55;;
74503;SDS011;62988;55.776;37.544;2023-08-24T01:29:39;5.35;;;2.65;;
74503;SDS011;62988;55.776;37.544;2023-08-24T01:32:08;5.88;;;2.35;;
74503;SDS011;62988;55.776;37.544;2023-08-24T01:34:36;5.75;;;2.35;;
74503;SDS011;62988;55.776;37.544;2023-08-24T01:37:01;5.45;;;2.60;;
74503;SDS011;62988;55.776;37.544;2023-08-24T01:39:31;6.37;;;2.70;;
74503;SDS011;62988;55.776;37.544;2023-08-24T01:42:00;4.50;;;2.88;;
74503;SDS011;62988;55.776;37.544;2023-08-24T01:44:27;3.90;;;2.40;;
74503;SDS011;62988;55.776;37.544;2023-08-24T01:46:53;3.75;;;2.30;;
74503;SDS011;62988;55.776;37.544;2023-08-24T01:49:19;8.68;;;2.90;;
74503;SDS011;62988;55.776;37.544;2023-08-24T01:51:45;4.07;;;2.60;;
74503;SDS011;62988;55.776;37.544;2023-08-24T01:54:11;4.75;;;2.70;;
74503;SDS011;62988;55.776;37.544;2023-08-24T01:56:36;5.28;;;2.60;;
74503;SDS011;62988;55.776;37.544;2023-08-24T01:59:02;5.60;;;3.03;;
74503;SDS011;62988;55.776;37.544;2023-08-24T02:01:27;4.60;;;2.77;;
74503;SDS011;62988;55.776;37.544;2023-08-24T02:03:52;4.83;;;3.03;;
74503;SDS011;62988;55.776;37.544;2023-08-24T02:06:18;5.83;;;3.03;;
74503;SDS011;62988;55.776;37.544;2023-08-24T02:08:43;6.85;;;3.28;;
74503;SDS011;62988;55.776;37.544;2023-08-24T02:11:10;6.55;;;4.00;;
74503;SDS011;62988;55.776;37.544;2023-08-24T02:13:35;6.43;;;3.33;;
74503;SDS011;62988;55.776;37.544;2023-08-24T02:16:01;4.38;;;2.95;;
74503;SDS011;62988;55.776;37.544;2023-08-24T02:18:27;5.03;;;3.00;;
74503;SDS011;62988;55.776;37.544;2023-08-24T02:20:52;5.17;;;2.93;;
74503;SDS011;62988;55.776;37.544;2023-08-24T02:23:17;7.03;;;2.97;;
74503;SDS011;62988;55.776;37.544;2023-08-24T02:25:43;5.47;;;2.50;;
74503;SDS011;62988;55.776;37.544;2023-08-24T02:28:08;7.72;;;2.85;;
74503;SDS011;62988;55.776;37.544;2023-08-24T02:30:36;4.93;;;2.47;;
74503;SDS011;62988;55.776;37.544;2023-08-24T02:33:02;6.20;;;2.95;;
74503;SDS011;62988;55.776;37.544;2023-08-24T02:35:27;5.28;;;2.80;;
74503;SDS011;62988;55.776;37.544;2023-08-24T02:37:53;6.67;;;2.90;;
74503;SDS011;62988;55.776;37.544;2023-08-24T02:40:20;4.68;;;2.72;;
74503;SDS011;62988;55.776;37.544;2023-08-24T02:42:45;7.43;;;2.70;;
74503;SDS011;62988;55.776;37.544;2023-08-24T02:45:10;6.10;;;3.33;;
74503;SDS011;62988;55.776;37.544;2023-08-24T02:47:36;7.63;;;3.33;;
74503;SDS011;62988;55.776;37.544;2023-08-24T02:50:02;5.43;;;2.83;;
74503;SDS011;62988;55.776;37.544;2023-08-24T02:52:27;6.07;;;2.92;;
74503;SDS011;62988;55.776;37.544;2023-08-24T02:54:52;7.90;;;3.37;;
74503;SDS011;62988;55.776;37.544;2023-08-24T02:57:18;9.27;;;3.50;;
74503;SDS011;62988;55.776;37.544;2023-08-24T02:59:43;8.13;;;3.30;;
74503;SDS011;62988;55.776;37.544;2023-08-24T03:02:09;5.20;;;3.03;;
74503;SDS011;62988;55.776;37.544;2023-08-24T03:04:35;7.65;;;3.33;;
74503;SDS011;62988;55.776;37.544;2023-08-24T03:07:00;6.30;;;3.10;;
74503;SDS011;62988;55.776;37.544;2023-08-24T03:09:26;7.13;;;3.65;;
74503;SDS011;62988;55.776;37.544;2023-08-24T03:11:51;6.80;;;3.47;;
74503;SDS011;62988;55.776;37.544;2023-08-24T03:14:17;6.00;;;3.30;;
74503;SDS011;62988;55.776;37.544;2023-08-24T03:16:43;5.03;;;2.72;;
74503;SDS011;62988;55.776;37.544;2023-08-24T03:19:09;6.10;;;3.30;;
74503;SDS011;62988;55.776;37.544;2023-08-24T03:21:34;7.90;;;3.28;;
74503;SDS011;62988;55.776;37.544;2023-08-24T03:24:00;5.47;;;2.73;;
74503;SDS011;62988;55.776;37.544;2023-08-24T03:26:25;5.47;;;2.60;;
74503;SDS011;62988;55.776;37.544;2023-08-24T03:28:50;10.13;;;3.10;;
74503;SDS011;62988;55.776;37.544;2023-08-24T03:31:16;8.10;;;2.95;;
74503;SDS011;62988;55.776;37.544;2023-08-24T03:33:41;5.40;;;3.00;;
74503;SDS011;62988;55.776;37.544;2023-08-24T03:36:07;6.63;;;3.37;;
74503;SDS011;62988;55.776;37.544;2023-08-24T03:38:32;8.27;;;3.15;;
74503;SDS011;62988;55.776;37.544;2023-08-24T03:41:04;5.95;;;3.35;;
74503;SDS011;62988;55.776;37.544;2023-08-24T03:43:34;7.25;;;3.05;;
74503;SDS011;62988;55.776;37.544;2023-08-24T03:48:25;7.20;;;3.60;;
74503;SDS011;62988;55.776;37.544;2023-08-24T03:50:53;10.02;;;3.70;;
74503;SDS011;62988;55.776;37.544;2023-08-24T03:53:18;5.38;;;2.95;;
74503;SDS011;62988;55.776;37.544;2023-08-24T03:55:46;6.32;;;3.10;;
74503;SDS011;62988;55.776;37.544;2023-08-24T03:58:12;5.95;;;3.38;;
74503;SDS011;62988;55.776;37.544;2023-08-24T04:00:37;9.13;;;3.53;;
74503;SDS011;62988;55.776;37.544;2023-08-24T04:03:03;5.47;;;3.05;;
74503;SDS011;62988;55.776;37.544;2023-08-24T04:05:28;12.02;;;3.60;;
74503;SDS011;62988;55.776;37.544;2023-08-24T04:07:54;8.00;;;3.30;;
74503;SDS011;62988;55.776;37.544;2023-08-24T04:10:19;6.13;;;3.80;;
74503;SDS011;62988;55.776;37.544;2023-08-24T04:12:45;5.20;;;3.60;;
74503;SDS011;62988;55.776;37.544;2023-08-24T04:15:10;6.73;;;4.20;;
74503;SDS011;62988;55.776;37.544;2023-08-24T04:17:36;8.18;;;3.80;;
74503;SDS011;62988;55.776;37.544;2023-08-24T04:20:01;7.30;;;4.13;;
74503;SDS011;62988;55.776;37.544;2023-08-24T04:22:26;6.40;;;3.83;;
74503;SDS011;62988;55.776;37.544;2023-08-24T04:24:52;6.63;;;4.20;;
74503;SDS011;62988;55.776;37.544;2023-08-24T04:27:17;6.90;;;3.93;;
74503;SDS011;62988;55.776;37.544;2023-08-24T04:29:43;7.55;;;4.53;;
74503;SDS011;62988;55.776;37.544;2023-08-24T04:32:08;10.35;;;4.72;;
74503;SDS011;62988;55.776;37.544;2023-08-24T04:34:33;9.50;;;4.50;;
74503;SDS011;62988;55.776;37.544;2023-08-24T04:37:02;9.90;;;4.43;;
74503;SDS011;62988;55.776;37.544;2023-08-24T04:39:28;10.13;;;4.90;;
74503;SDS011;62988;55.776;37.544;2023-08-24T04:41:54;10.35;;;4.85;;
74503;SDS011;62988;55.776;37.544;2023-08-24T04:44:19;8.83;;;5.03;;
74503;SDS011;62988;55.776;37.544;2023-08-24T04:46:45;8.77;;;4.87;;
74503;SDS011;62988;55.776;37.544;2023-08-24T04:49:10;9.00;;;4.73;;
74503;SDS011;62988;55.776;37.544;2023-08-24T04:51:35;9.80;;;4.80;;
74503;SDS011;62988;55.776;37.544;2023-08-24T04:54:00;10.77;;;4.80;;
74503;SDS011;62988;55.776;37.544;2023-08-24T04:56:26;8.23;;;4.73;;
74503;SDS011;62988;55.776;37.544;2023-08-24T04:58:52;8.50;;;4.65;;
74503;SDS011;62988;55.776;37.544;2023-08-24T05:01:19;9.80;;;5.38;;
74503;SDS011;62988;55.776;37.544;2023-08-24T05:03:44;9.43;;;4.43;;
74503;SDS011;62988;55.776;37.544;2023-08-24T05:06:09;7.13;;;4.40;;
74503;SDS011;62988;55.776;37.544;2023-08-24T05:08:34;11.80;;;4.70;;
74503;SDS011;62988;55.776;37.544;2023-08-24T05:11:00;9.77;;;4.57;;
74503;SDS011;62988;55.776;37.544;2023-08-24T05:13:25;13.97;;;4.67;;
74503;SDS011;62988;55.776;37.544;2023-08-24T05:15:50;11.13;;;4.40;;
74503;SDS011;62988;55.776;37.544;2023-08-24T05:18:16;9.27;;;4.07;;
74503;SDS011;62988;55.776;37.544;2023-08-24T05:20:41;8.97;;;4.50;;
74503;SDS011;62988;55.776;37.544;2023-08-24T05:23:06;8.30;;;4.70;;
74503;SDS011;62988;55.776;37.544;2023-08-24T05:25:31;6.63;;;3.60;;
74503;SDS011;62988;55.776;37.544;2023-08-24T05:27:59;8.75;;;4.82;;
74503;SDS011;62988;55.776;37.544;2023-08-24T05:30:24;8.53;;;4.30;;
74503;SDS011;62988;55.776;37.544;2023-08-24T05:32:50;9.10;;;4.25;;
74503;SDS011;62988;55.776;37.544;2023-08-24T05:35:15;8.43;;;4.23;;
74503;SDS011;62988;55.776;37.544;2023-08-24T05:37:40;7.37;;;4.40;;
74503;SDS011;62988;55.776;37.544;2023-08-24T05:40:06;9.00;;;4.53;;
74503;SDS011;62988;55.776;37.544;2023-08-24T05:42:31;11.27;;;4.95;;
74503;SDS011;62988;55.776;37.544;2023-08-24T05:44:56;8.33;;;4.37;;
74503;SDS011;62988;55.776;37.544;2023-08-24T05:47:22;8.37;;;4.33;;
74503;SDS011;62988;55.776;37.544;2023-08-24T05:49:47;7.53;;;4.43;;
74503;SDS011;62988;55.776;37.544;2023-08-24T05:52:12;6.68;;;3.47;;
74503;SDS011;62988;55.776;37.544;2023-08-24T05:54:38;6.93;;;3.90;;
74503;SDS011;62988;55.776;37.544;2023-08-24T05:57:04;6.75;;;3.70;;
74503;SDS011;62988;55.776;37.544;2023-08-24T05:59:29;8.55;;;4.32;;
74503;SDS011;62988;55.776;37.544;2023-08-24T06:01:55;7.80;;;3.88;;
74503;SDS011;62988;55.776;37.544;2023-08-24T06:04:20;9.95;;;3.90;;
74503;SDS011;62988;55.776;37.544;2023-08-24T06:06:46;8.50;;;3.88;;
74503;SDS011;62988;55.776;37.544;2023-08-24T06:09:11;9.07;;;3.57;;
74503;SDS011;62988;55.776;37.544;2023-08-24T06:11:36;8.50;;;3.90;;
74503;SDS011;62988;55.776;37.544;2023-08-24T06:14:02;9.85;;;3.70;;
74503;SDS011;62988;55.776;37.544;2023-08-24T06:16:27;5.93;;;3.53;;
74503;SDS011;62988;55.776;37.544;2023-08-24T06:18:53;9.45;;;3.38;;
74503;SDS011;62988;55.776;37.544;2023-08-24T06:21:18;7.30;;;3.78;;
74503;SDS011;62988;55.776;37.544;2023-08-24T06:23:43;8.67;;;3.30;;
74503;SDS011;62988;55.776;37.544;2023-08-24T06:26:09;6.43;;;3.00;;
74503;SDS011;62988;55.776;37.544;2023-08-24T06:28:35;7.80;;;3.40;;
74503;SDS011;62988;55.776;37.544;2023-08-24T06:31:00;5.87;;;3.10;;
74503;SDS011;62988;55.776;37.544;2023-08-24T06:33:29;6.00;;;3.95;;
74503;SDS011;62988;55.776;37.544;2023-08-24T06:35:58;8.32;;;3.72;;
74503;SDS011;62988;55.776;37.544;2023-08-24T06:38:23;6.82;;;4.22;;
74503;SDS011;62988;55.776;37.544;2023-08-24T06:40:49;8.48;;;4.22;;
74503;SDS011;62988;55.776;37.544;2023-08-24T06:43:14;17.13;;;7.33;;
74503;SDS011;62988;55.776;37.544;2023-08-24T06:45:40;12.32;;;5.88;;
74503;SDS011;62988;55.776;37.544;2023-08-24T06:48:05;9.05;;;5.20;;
74503;SDS011;62988;55.776;37.544;2023-08-24T06:50:32;21.80;;;6.32;;
74503;SDS011;62988;55.776;37.544;2023-08-24T06:52:57;12.50;;;6.00;;
74503;SDS011;62988;55.776;37.544;2023-08-24T06:55:22;11.67;;;5.90;;
74503;SDS011;62988;55.776;37.544;2023-08-24T06:57:48;12.40;;;4.90;;
74503;SDS011;62988;55.776;37.544;2023-08-24T07:00:15;9.45;;;5.45;;
74503;SDS011;62988;55.776;37.544;2023-08-24T07:02:40;11.63;;;5.05;;
74503;SDS011;62988;55.776;37.544;2023-08-24T07:05:06;9.50;;;4.65;;
74503;SDS011;62988;55.776;37.544;2023-08-24T07:07:33;12.48;;;5.40;;
74503;SDS011;62988;55.776;37.544;2023-08-24T07:09:59;9.85;;;5.47;;
74503;SDS011;62988;55.776;37.544;2023-08-24T07:12:24;8.70;;;4.93;;
74503;SDS011;62988;55.776;37.544;2023-08-24T07:14:49;10.73;;;4.73;;
74503;SDS011;62988;55.776;37.544;2023-08-24T07:17:14;7.90;;;4.83;;
74503;SDS011;62988;55.776;37.544;2023-08-24T07:19:40;9.90;;;4.73;;
74503;SDS011;62988;55.776;37.544;2023-08-24T07:22:05;8.53;;;4.80;;
74503;SDS011;62988;55.776;37.544;2023-08-24T07:24:31;7.35;;;4.25;;
74503;SDS011;62988;55.776;37.544;2023-08-24T07:26:58;8.07;;;4.18;;
74503;SDS011;62988;55.776;37.544;2023-08-24T07:29:23;8.32;;;4.38;;
74503;SDS011;62988;55.776;37.544;2023-08-24T07:31:49;8.40;;;3.80;;
74503;SDS011;62988;55.776;37.544;2023-08-24T07:34:14;6.50;;;3.30;;
74503;SDS011;62988;55.776;37.544;2023-08-24T07:36:40;11.98;;;3.88;;
74503;SDS011;62988;55.776;37.544;2023-08-24T07:39:07;5.85;;;3.40;;
74503;SDS011;62988;55.776;37.544;2023-08-24T07:41:32;7.13;;;4.00;;
74503;SDS011;62988;55.776;37.544;2023-08-24T07:43:58;7.13;;;4.10;;
74503;SDS011;62988;55.776;37.544;2023-08-24T07:46:23;6.70;;;3.30;;
74503;SDS011;62988;55.776;37.544;2023-08-24T07:48:48;7.60;;;3.43;;
74503;SDS011;62988;55.776;37.544;2023-08-24T07:51:14;6.93;;;3.80;;
74503;SDS011;62988;55.776;37.544;2023-08-24T07:53:39;13.20;;;4.20;;
74503;SDS011;62988;55.776;37.544;2023-08-24T07:56:05;14.80;;;4.30;;
74503;SDS011;62988;55.776;37.544;2023-08-24T07:58:30;10.85;;;4.35;;
74503;SDS011;62988;55.776;37.544;2023-08-24T08:00:58;5.55;;;3.17;;
74503;SDS011;62988;55.776;37.544;2023-08-24T08:03:23;9.55;;;4.60;;
74503;SDS011;62988;55.776;37.544;2023-08-24T08:05:49;14.20;;;3.50;;
74503;SDS011;62988;55.776;37.544;2023-08-24T08:08:14;7.90;;;2.90;;
74503;SDS011;62988;55.776;37.544;2023-08-24T08:10:40;7.55;;;2.97;;
74503;SDS011;62988;55.776;37.544;2023-08-24T08:13:06;19.55;;;3.28;;
74503;SDS011;62988;55.776;37.544;2023-08-24T08:15:31;5.60;;;3.15;;
74503;SDS011;62988;55.776;37.544;2023-08-24T08:17:57;9.23;;;3.33;;
74503;SDS011;62988;55.776;37.544;2023-08-24T08:20:22;8.07;;;2.93;;
74503;SDS011;62988;55.776;37.544;2023-08-24T08:22:47;11.18;;;3.03;;
74503;SDS011;62988;55.776;37.544;2023-08-24T08:25:13;6.70;;;2.57;;
74503;SDS011;62988;55.776;37.544;2023-08-24T08:27:38;6.90;;;2.80;;
74503;SDS011;62988;55.776;37.544;2023-08-24T08:30:04;5.32;;;3.17;;
74503;SDS011;62988;55.776;37.544;2023-08-24T08:32:30;5.95;;;2.88;;
74503;SDS011;62988;55.776;37.544;2023-08-24T08:34:55;7.20;;;2.90;;
74503;SDS011;62988;55.776;37.544;2023-08-24T08:37:25;4.78;;;2.67;;
74503;SDS011;62988;55.776;37.544;2023-08-24T08:39:50;8.20;;;3.00;;
74503;SDS011;62988;55.776;37.544;2023-08-24T08:42:15;6.07;;;3.23;;
74503;SDS011;62988;55.776;37.544;2023-08-24T08:44:41;6.80;;;3.38;;
74503;SDS011;62988;55.776;37.544;2023-08-24T08:47:08;7.35;;;2.92;;
74503;SDS011;62988;55.776;37.544;2023-08-24T08:49:35;6.28;;;3.13;;
74503;SDS011;62988;55.776;37.544;2023-08-24T08:52:01;5.82;;;2.90;;
74503;SDS011;62988;55.776;37.544;2023-08-24T08:54:28;4.80;;;3.20;;
74503;SDS011;62988;55.776;37.544;2023-08-24T08:56:54;9.43;;;3.67;;
74503;SDS011;62988;55.776;37.544;2023-08-24T08:59:19;5.50;;;3.13;;
74503;SDS011;62988;55.776;37.544;2023-08-24T09:01:45;4.55;;;2.60;;
74503;SDS011;62988;55.776;37.544;2023-08-24T09:04:12;15.38;;;3.33;;
74503;SDS011;62988;55.776;37.544;2023-08-24T09:06:38;8.13;;;3.03;;
74503;SDS011;62988;55.776;37.544;2023-08-24T09:09:04;9.13;;;3.25;;
74503;SDS011;62988;55.776;37.544;2023-08-24T09:11:29;30.02;;;15.90;;
74503;SDS011;62988;55.776;37.544;2023-08-24T09:13:55;5.93;;;3.00;;
74503;SDS011;62988;55.776;37.544;2023-08-24T09:16:20;5.90;;;3.43;;
74503;SDS011;62988;55.776;37.544;2023-08-24T09:18:46;6.07;;;3.40;;
74503;SDS011;62988;55.776;37.544;2023-08-24T09:21:12;5.18;;;2.72;;
74503;SDS011;62988;55.776;37.544;2023-08-24T09:23:38;4.00;;;2.45;;
74503;SDS011;62988;55.776;37.544;2023-08-24T09:26:07;5.07;;;2.90;;
74503;SDS011;62988;55.776;37.544;2023-08-24T09:28:33;7.57;;;3.00;;
74503;SDS011;62988;55.776;37.544;2023-08-24T09:30:59;6.90;;;3.10;;
74503;SDS011;62988;55.776;37.544;2023-08-24T09:33:25;6.03;;;2.85;;
74503;SDS011;62988;55.776;37.544;2023-08-24T09:35:54;5.22;;;2.65;;
74503;SDS011;62988;55.776;37.544;2023-08-24T09:38:21;7.00;;;3.20;;
74503;SDS011;62988;55.776;37.544;2023-08-24T09:40:47;5.55;;;3.17;;
74503;SDS011;62988;55.776;37.544;2023-08-24T09:45:50;7.30;;;2.97;;
74503;SDS011;62988;55.776;37.544;2023-08-24T09:48:16;6.72;;;3.63;;
74503;SDS011;62988;55.776;37.544;2023-08-24T09:50:42;7.05;;;2.95;;
74503;SDS011;62988;55.776;37.544;2023-08-24T09:53:07;6.38;;;3.10;;
74503;SDS011;62988;55.776;37.544;2023-08-24T09:55:34;7.85;;;3.53;;
74503;SDS011;62988;55.776;37.544;2023-08-24T09:58:01;5.53;;;3.33;;
74503;SDS011;62988;55.776;37.544;2023-08-24T10:00:28;5.68;;;3.13;;
74503;SDS011;62988;55.776;37.544;2023-08-24T10:02:55;9.50;;;3.72;;
74503;SDS011;62988;55.776;37.544;2023-08-24T10:05:22;8.63;;;3.17;;
74503;SDS011;62988;55.776;37.544;2023-08-24T10:07:52;11.20;;;3.38;;
74503;SDS011;62988;55.776;37.544;2023-08-24T10:10:20;7.28;;;3.50;;
74503;SDS011;62988;55.776;37.544;2023-08-24T10:12:47;8.65;;;3.50;;
74503;SDS011;62988;55.776;37.544;2023-08-24T10:15:14;10.02;;;3.55;;
74503;SDS011;62988;55.776;37.544;2023-08-24T10:17:40;9.88;;;4.30;;
74503;SDS011;62988;55.776;37.544;2023-08-24T10:20:05;6.32;;;3.63;;
74503;SDS011;62988;55.776;37.544;2023-08-24T10:22:34;8.57;;;3.97;;
74503;SDS011;62988;55.776;37.544;2023-08-24T10:25:03;7.90;;;3.67;;
74503;SDS011;62988;55.776;37.544;2023-08-24T10:27:29;14.18;;;4.20;;
74503;SDS011;62988;55.776;37.544;2023-08-24T10:29:55;10.45;;;3.58;;
74503;SDS011;62988;55.776;37.544;2023-08-24T10:32:21;7.63;;;3.20;;
74503;SDS011;62988;55.776;37.544;2023-08-24T10:34:47;18.23;;;4.80;;
74503;SDS011;62988;55.776;37.544;2023-08-24T10:37:12;8.83;;;3.60;;
74503;SDS011;62988;55.776;37.544;2023-08-24T10:39:46;8.80;;;2.90;;
74503;SDS011;62988;55.776;37.544;2023-08-24T10:42:15;6.53;;;2.90;;
74503;SDS011;62988;55.776;37.544;2023-08-24T10:44:43;6.07;;;2.67;;
74503;SDS011;62988;55.776;37.544;2023-08-24T10:47:19;6.18;;;3.00;;
74503;SDS011;62988;55.776;37.544;2023-08-24T10:50:05;6.38;;;2.92;;
74503;SDS011;62988;55.776;37.544;2023-08-24T10:54:55;4.97;;;2.23;;
74503;SDS011;62988;55.776;37.544;2023-08-24T10:57:22;5.30;;;2.03;;
74503;SDS011;62988;55.776;37.544;2023-08-24T11:00:03;6.15;;;2.38;;
74503;SDS011;62988;55.776;37.544;2023-08-24T11:02:31;6.93;;;2.95;;
74503;SDS011;62988;55.776;37.544;2023-08-24T11:05:03;8.90;;;2.60;;
74503;SDS011;62988;55.776;37.544;2023-08-24T11:07:28;6.88;;;3.05;;
74503;SDS011;62988;55.776;37.544;2023-08-24T11:09:54;8.95;;;2.60;;
74503;SDS011;62988;55.776;37.544;2023-08-24T11:12:19;4.20;;;2.20;;
74503;SDS011;62988;55.776;37.544;2023-08-24T11:14:51;4.70;;;2.40;;
74503;SDS011;62988;55.776;37.544;2023-08-24T11:17:20;9.98;;;2.92;;
74503;SDS011;62988;55.776;37.544;2023-08-24T11:19:48;6.38;;;3.33;;
74503;SDS011;62988;55.776;37.544;2023-08-24T11:22:14;5.57;;;3.03;;
74503;SDS011;62988;55.776;37.544;2023-08-24T11:24:40;4.97;;;2.85;;
74503;SDS011;62988;55.776;37.544;2023-08-24T11:27:05;7.20;;;2.75;;
74503;SDS011;62988;55.776;37.544;2023-08-24T11:29:30;6.53;;;2.23;;
74503;SDS011;62988;55.776;37.544;2023-08-24T11:31:57;5.67;;;3.13;;
74503;SDS011;62988;55.776;37.544;2023-08-24T11:34:22;6.93;;;2.25;;
74503;SDS011;62988;55.776;37.544;2023-08-24T11:36:48;8.02;;;2.40;;
74503;SDS011;62988;55.776;37.544;2023-08-24T11:39:17;7.20;;;2.27;;
74503;SDS011;62988;55.776;37.544;2023-08-24T11:42:01;6.30;;;2.67;;
74503;SDS011;62988;55.776;37.544;2023-08-24T11:44:27;9.80;;;3.10;;
74503;SDS011;62988;55.776;37.544;2023-08-24T11:46:53;6.93;;;2.70;;
74503;SDS011;62988;55.776;37.544;2023-08-24T11:49:18;9.02;;;2.33;;
74503;SDS011;62988;55.776;37.544;2023-08-24T11:51:43;6.50;;;2.22;;
74503;SDS011;62988;55.776;37.544;2023-08-24T11:54:09;4.85;;;2.33;;
74503;SDS011;62988;55.776;37.544;2023-08-24T11:56:40;9.40;;;2.83;;
74503;SDS011;62988;55.776;37.544;2023-08-24T11:59:05;4.00;;;2.10;;
74503;SDS011;62988;55.776;37.544;2023-08-24T12:01:31;4.85;;;2.17;;
74503;SDS011;62988;55.776;37.544;2023-08-24T12:03:57;5.30;;;2.08;;
74503;SDS011;62988;55.776;37.544;2023-08-24T12:06:26;4.28;;;1.98;;
74503;SDS011;62988;55.776;37.544;2023-08-24T12:08:52;6.72;;;2.22;;
74503;SDS011;62988;55.776;37.544;2023-08-24T12:11:18;12.20;;;2.05;;
74503;SDS011;62988;55.776;37.544;2023-08-24T12:13:54;4.90;;;1.65;;
74503;SDS011;62988;55.776;37.544;2023-08-24T12:16:20;5.00;;;1.58;;
74503;SDS011;62988;55.776;37.544;2023-08-24T12:18:53;10.07;;;1.85;;
74503;SDS011;62988;55.776;37.544;2023-08-24T12:21:18;6.10;;;1.90;;
74503;SDS011;62988;55.776;37.544;2023-08-24T12:23:45;6.70;;;2.33;;
74503;SDS011;62988;55.776;37.544;2023-08-24T12:26:19;5.45;;;1.67;;
74503;SDS011;62988;55.776;37.544;2023-08-24T12:28:48;6.95;;;2.00;;
74503;SDS011;62988;55.776;37.544;2023-08-24T12:31:13;3.15;;;1.42;;
74503;SDS011;62988;55.776;37.544;2023-08-24T12:33:39;5.72;;;1.73;;
74503;SDS011;62988;55.776;37.544;2023-08-24T12:36:06;4.35;;;1.70;;
74503;SDS011;62988;55.776;37.544;2023-08-24T12:38:31;2.83;;;1.70;;
74503;SDS011;62988;55.776;37.544;2023-08-24T12:40:56;3.77;;;1.70;;
74503;SDS011;62988;55.776;37.544;2023-08-24T12:43:21;6.60;;;1.90;;
74503;SDS011;62988;55.776;37.544;2023-08-24T12:45:47;7.47;;;1.90;;
74503;SDS011;62988;55.776;37.544;2023-08-24T12:48:12;7.20;;;1.75;;
74503;SDS011;62988;55.776;37.544;2023-08-24T12:50:38;3.03;;;1.27;;
74503;SDS011;62988;55.776;37.544;2023-08-24T12:53:03;3.03;;;1.38;;
74503;SDS011;62988;55.776;37.544;2023-08-24T12:55:31;5.28;;;1.40;;
74503;SDS011;62988;55.776;37.544;2023-08-24T12:57:56;13.20;;;2.35;;
74503;SDS011;62988;55.776;37.544;2023-08-24T13:00:22;7.33;;;1.90;;
74503;SDS011;62988;55.776;37.544;2023-08-24T13:02:50;5.33;;;1.60;;
74503;SDS011;62988;55.776;37.544;2023-08-24T13:05:16;4.78;;;1.88;;
74503;SDS011;62988;55.776;37.544;2023-08-24T13:07:41;9.27;;;1.88;;
74503;SDS011;62988;55.776;37.544;2023-08-24T13:10:06;4.17;;;1.87;;
74503;SDS011;62988;55.776;37.544;2023-08-24T13:12:32;3.00;;;1.50;;
74503;SDS011;62988;55.776;37.544;2023-08-24T13:14:58;8.65;;;1.88;;
74503;SDS011;62988;55.776;37.544;2023-08-24T13:17:23;6.57;;;1.67;;
74503;SDS011;62988;55.776;37.544;2023-08-24T13:19:48;11.07;;;1.83;;
74503;SDS011;62988;55.776;37.544;2023-08-24T13:22:14;3.47;;;1.65;;
74503;SDS011;62988;55.776;37.544;2023-08-24T13:24:39;4.60;;;1.63;;
74503;SDS011;62988;55.776;37.544;2023-08-24T13:27:05;7.00;;;1.52;;
74503;SDS011;62988;55.776;37.544;2023-08-24T13:29:35;9.60;;;1.83;;
74503;SDS011;62988;55.776;37.544;2023-08-24T13:32:00;9.57;;;1.77;;
74503;SDS011;62988;55.776;37.544;2023-08-24T13:34:25;7.17;;;1.90;;
74503;SDS011;62988;55.776;37.544;2023-08-24T13:36:51;5.13;;;1.60;;
74503;SDS011;62988;55.776;37.544;2023-08-24T13:39:16;3.83;;;1.50;;
74503;SDS011;62988;55.776;37.544;2023-08-24T13:41:42;3.95;;;1.80;;
74503;SDS011;62988;55.776;37.544;2023-08-24T13:44:07;6.23;;;1.67;;
74503;SDS011;62988;55.776;37.544;2023-08-24T13:46:32;6.68;;;1.80;;
74503;SDS011;62988;55.776;37.544;2023-08-24T13:48:58;4.10;;;1.53;;
74503;SDS011;62988;55.776;37.544;2023-08-24T13:51:23;6.13;;;2.07;;
74503;SDS011;62988;55.776;37.544;2023-08-24T13:53:48;5.63;;;1.43;;
74503;SDS011;62988;55.776;37.544;2023-08-24T13:56:14;8.97;;;1.70;;
74503;SDS011;62988;55.776;37.544;2023-08-24T13:58:39;6.38;;;1.73;;
74503;SDS011;62988;55.776;37.544;2023-08-24T14:01:04;5.10;;;1.33;;
74503;SDS011;62988;55.776;37.544;2023-08-24T14:03:30;11.73;;;3.05;;
74503;SDS011;62988;55.776;37.544;2023-08-24T14:05:56;4.28;;;1.35;;
74503;SDS011;62988;55.776;37.544;2023-08-24T14:08:21;6.97;;;1.75;;
74503;SDS011;62988;55.776;37.544;2023-08-24T14:10:46;5.60;;;1.40;;
74503;SDS011;62988;55.776;37.544;2023-08-24T14:13:14;3.83;;;1.77;;
74503;SDS011;62988;55.776;37.544;2023-08-24T14:15:39;5.78;;;1.52;;
74503;SDS011;62988;55.776;37.544;2023-08-24T14:18:04;4.47;;;1.40;;
74503;SDS011;62988;55.776;37.544;2023-08-24T14:20:30;7.07;;;1.80;;
74503;SDS011;62988;55.776;37.544;2023-08-24T14:22:56;5.85;;;1.40;;
74503;SDS011;62988;55.776;37.544;2023-08-24T14:25:21;8.00;;;1.70;;
74503;SDS011;62988;55.776;37.544;2023-08-24T14:27:47;7.25;;;1.80;;
74503;SDS011;62988;55.776;37.544;2023-08-24T14:30:13;11.30;;;2.40;;
74503;SDS011;62988;55.776;37.544;2023-08-24T14:32:38;8.20;;;3.03;;
74503;SDS011;62988;55.776;37.544;2023-08-24T14:35:04;7.73;;;1.50;;
74503;SDS011;62988;55.776;37.544;2023-08-24T14:37:29;5.07;;;1.95;;
74503;SDS011;62988;55.776;37.544;2023-08-24T14:39:55;6.07;;;1.73;;